QTR1178 OTHH-OEMA
Flight info
| Callsign | QTR1178 |
|---|---|
| Flight time | 2h 2m |
| Altitude | 38000 |
| Route | DATRI L564 MIGMA M628 AMBAG M321 NAGUB DCT IVONU Y216 ITSEP |
| Aircraft | A310/H-SDFGHIM1RTUWXY/LB1 |
Departure
| Time | 2026-05-06 14:34 |
|---|---|
| Airport | Hamad International Airport (OTHH) |
Arrival
| Time | 2026-05-06 16:37 |
|---|---|
| Airport | Prince Mohammad Bin Abdulaziz Airport (OEMA) |
| Time | Latitude | Longitude | Altitude | Speed | Heading |
|---|---|---|---|---|---|
| 2026-05-06 13:54 | 25.26948 | 51.61301 | 13 ft | 0 kts | 293° |
| 2026-05-06 14:08 | 25.26948 | 51.61302 | 13 ft | 1 kts | 293° |
| 2026-05-06 14:09 | 25.26936 | 51.61331 | 13 ft | 6 kts | 294° |
| 2026-05-06 14:09 | 25.26913 | 51.61390 | 13 ft | 6 kts | 294° |
| 2026-05-06 14:09 | 25.26906 | 51.61406 | 13 ft | 0 kts | 294° |
| 2026-05-06 14:29 | 25.26926 | 51.61386 | 13 ft | 14 kts | 340° |
| 2026-05-06 14:29 | 25.27003 | 51.61475 | 13 ft | 20 kts | 67° |
| 2026-05-06 14:29 | 25.27061 | 51.61633 | 13 ft | 20 kts | 68° |
| 2026-05-06 14:30 | 25.27101 | 51.61783 | 13 ft | 15 kts | 121° |
| 2026-05-06 14:30 | 25.26988 | 51.61837 | 13 ft | 18 kts | 158° |
| 2026-05-06 14:30 | 25.26858 | 51.61895 | 13 ft | 20 kts | 158° |
| 2026-05-06 14:30 | 25.26713 | 51.61957 | 13 ft | 22 kts | 161° |
| 2026-05-06 14:31 | 25.26552 | 51.62019 | 13 ft | 24 kts | 149° |
| 2026-05-06 14:31 | 25.26388 | 51.62104 | 13 ft | 25 kts | 161° |
| 2026-05-06 14:31 | 25.26207 | 51.62182 | 13 ft | 27 kts | 158° |
| 2026-05-06 14:31 | 25.26044 | 51.62254 | 13 ft | 15 kts | 161° |
| 2026-05-06 14:32 | 25.26000 | 51.62342 | 13 ft | 15 kts | 63° |
| 2026-05-06 14:32 | 25.26053 | 51.62450 | 13 ft | 15 kts | 63° |
| 2026-05-06 14:32 | 25.26109 | 51.62446 | 13 ft | 11 kts | 323° |
| 2026-05-06 14:32 | 25.26133 | 51.62430 | 13 ft | 0 kts | 334° |
| 2026-05-06 14:33 | 25.26184 | 51.62402 | 13 ft | 21 kts | 334° |
| 2026-05-06 14:33 | 25.26448 | 51.62279 | 13 ft | 63 kts | 339° |
| 2026-05-06 14:33 | 25.27061 | 51.62013 | 13 ft | 118 kts | 338° |
| 2026-05-06 14:33 | 25.28051 | 51.61576 | 45 ft | 169 kts | 340° |
| 2026-05-06 14:34 | 25.29179 | 51.61080 | 560 ft | 173 kts | 342° |
| 2026-05-06 14:34 | 25.30332 | 51.60655 | 1231 ft | 172 kts | 344° |
| 2026-05-06 14:34 | 25.31524 | 51.60227 | 1890 ft | 174 kts | 347° |
| 2026-05-06 14:34 | 25.32779 | 51.60004 | 2445 ft | 176 kts | 2° |
| 2026-05-06 14:35 | 25.34051 | 51.60080 | 2760 ft | 183 kts | 5° |
| 2026-05-06 14:35 | 25.35407 | 51.59611 | 3083 ft | 209 kts | 318° |
| 2026-05-06 14:35 | 25.36056 | 51.58111 | 3459 ft | 231 kts | 273° |
| 2026-05-06 14:35 | 25.35563 | 51.56292 | 3937 ft | 248 kts | 233° |
| 2026-05-06 14:36 | 25.34313 | 51.54738 | 4296 ft | 263 kts | 225° |
| 2026-05-06 14:36 | 25.32969 | 51.53290 | 4642 ft | 265 kts | 223° |
| 2026-05-06 14:36 | 25.31893 | 51.51629 | 4985 ft | 272 kts | 253° |
| 2026-05-06 14:36 | 25.31143 | 51.49695 | 5584 ft | 282 kts | 232° |
| 2026-05-06 14:37 | 25.29770 | 51.48006 | 5972 ft | 301 kts | 224° |
| 2026-05-06 14:37 | 25.28266 | 51.46370 | 6682 ft | 308 kts | 223° |
| 2026-05-06 14:37 | 25.26660 | 51.44687 | 7491 ft | 312 kts | 223° |
| 2026-05-06 14:37 | 25.25070 | 51.43052 | 8300 ft | 316 kts | 223° |
| 2026-05-06 14:38 | 25.23463 | 51.41424 | 9181 ft | 316 kts | 223° |
| 2026-05-06 14:38 | 25.21839 | 51.39800 | 9981 ft | 320 kts | 223° |
| 2026-05-06 14:38 | 25.20168 | 51.38140 | 10568 ft | 332 kts | 223° |
| 2026-05-06 14:38 | 25.18157 | 51.36707 | 10537 ft | 360 kts | 197° |
| 2026-05-06 14:39 | 25.15625 | 51.36274 | 11007 ft | 370 kts | 185° |
| 2026-05-06 14:39 | 25.13045 | 51.36069 | 11685 ft | 376 kts | 183° |
| 2026-05-06 14:39 | 25.10420 | 51.35921 | 12474 ft | 379 kts | 183° |
| 2026-05-06 14:39 | 25.07760 | 51.35790 | 13231 ft | 383 kts | 183° |
| 2026-05-06 14:40 | 25.05084 | 51.35663 | 13965 ft | 386 kts | 183° |
| 2026-05-06 14:40 | 25.02397 | 51.35528 | 14628 ft | 390 kts | 183° |
| 2026-05-06 14:40 | 24.99694 | 51.35389 | 15326 ft | 393 kts | 183° |
| 2026-05-06 14:40 | 24.96964 | 51.35242 | 16012 ft | 395 kts | 183° |
| 2026-05-06 14:41 | 24.94171 | 51.35088 | 16646 ft | 399 kts | 183° |
| 2026-05-06 14:41 | 24.91400 | 51.34931 | 17278 ft | 402 kts | 182° |
| 2026-05-06 14:41 | 24.88613 | 51.34773 | 17946 ft | 403 kts | 182° |
| 2026-05-06 14:41 | 24.85807 | 51.34629 | 18544 ft | 405 kts | 182° |
| 2026-05-06 14:42 | 24.82992 | 51.34503 | 19108 ft | 407 kts | 182° |
| 2026-05-06 14:42 | 24.80125 | 51.34390 | 19660 ft | 409 kts | 182° |
| 2026-05-06 14:42 | 24.77280 | 51.34297 | 20220 ft | 411 kts | 182° |
| 2026-05-06 14:42 | 24.74423 | 51.34220 | 20734 ft | 413 kts | 182° |
| 2026-05-06 14:43 | 24.71546 | 51.34158 | 21259 ft | 415 kts | 182° |
| 2026-05-06 14:43 | 24.68649 | 51.34111 | 21744 ft | 417 kts | 182° |
| 2026-05-06 14:43 | 24.65739 | 51.34077 | 22213 ft | 420 kts | 182° |
| 2026-05-06 14:43 | 24.62773 | 51.34053 | 22694 ft | 421 kts | 182° |
| 2026-05-06 14:44 | 24.59840 | 51.34043 | 23141 ft | 424 kts | 182° |
| 2026-05-06 14:44 | 24.56883 | 51.34037 | 23580 ft | 427 kts | 182° |
| 2026-05-06 14:44 | 24.53910 | 51.34039 | 24016 ft | 429 kts | 182° |
| 2026-05-06 14:45 | 24.47868 | 51.34056 | 24867 ft | 434 kts | 182° |
| 2026-05-06 14:45 | 24.44838 | 51.34072 | 25299 ft | 436 kts | 182° |
| 2026-05-06 14:45 | 24.41823 | 51.33921 | 25598 ft | 436 kts | 191° |
| 2026-05-06 14:45 | 24.38815 | 51.33111 | 26071 ft | 432 kts | 201° |
| 2026-05-06 14:46 | 24.36021 | 51.31741 | 26575 ft | 426 kts | 211° |
| 2026-05-06 14:46 | 24.33554 | 51.29887 | 27030 ft | 423 kts | 221° |
| 2026-05-06 14:46 | 24.31497 | 51.27642 | 27552 ft | 419 kts | 231° |
| 2026-05-06 14:46 | 24.29829 | 51.25039 | 27998 ft | 417 kts | 239° |
| 2026-05-06 14:47 | 24.28293 | 51.22342 | 28311 ft | 417 kts | 238° |
| 2026-05-06 14:47 | 24.26750 | 51.19626 | 28556 ft | 424 kts | 238° |
| 2026-05-06 14:47 | 24.25176 | 51.16857 | 28812 ft | 427 kts | 238° |
| 2026-05-06 14:47 | 24.23605 | 51.14099 | 29062 ft | 430 kts | 238° |
| 2026-05-06 14:48 | 24.22015 | 51.11314 | 29309 ft | 434 kts | 238° |
| 2026-05-06 14:48 | 24.20418 | 51.08516 | 29559 ft | 436 kts | 238° |
| 2026-05-06 14:48 | 24.18808 | 51.05697 | 29801 ft | 439 kts | 238° |
| 2026-05-06 14:48 | 24.17182 | 51.02857 | 30044 ft | 440 kts | 238° |
| 2026-05-06 14:49 | 24.15554 | 51.00015 | 30284 ft | 442 kts | 238° |
| 2026-05-06 14:49 | 24.13897 | 50.97124 | 30517 ft | 443 kts | 238° |
| 2026-05-06 14:49 | 24.12264 | 50.94279 | 30746 ft | 444 kts | 238° |
| 2026-05-06 14:49 | 24.10626 | 50.91422 | 30977 ft | 444 kts | 238° |
| 2026-05-06 14:50 | 24.08995 | 50.88584 | 31202 ft | 441 kts | 238° |
| 2026-05-06 14:50 | 24.07376 | 50.85764 | 31421 ft | 438 kts | 238° |
| 2026-05-06 14:50 | 24.05763 | 50.82956 | 31645 ft | 436 kts | 238° |
| 2026-05-06 14:50 | 24.04131 | 50.80118 | 31868 ft | 436 kts | 239° |
| 2026-05-06 14:51 | 24.02522 | 50.77322 | 32096 ft | 435 kts | 239° |
| 2026-05-06 14:51 | 24.00905 | 50.74518 | 32315 ft | 435 kts | 239° |
| 2026-05-06 14:51 | 23.99296 | 50.71726 | 32536 ft | 434 kts | 239° |
| 2026-05-06 14:51 | 23.97685 | 50.68925 | 32773 ft | 433 kts | 239° |
| 2026-05-06 14:52 | 23.96084 | 50.66141 | 33032 ft | 432 kts | 239° |
| 2026-05-06 14:52 | 23.94484 | 50.63361 | 33279 ft | 432 kts | 239° |
| 2026-05-06 14:52 | 23.92883 | 50.60579 | 33531 ft | 431 kts | 239° |
| 2026-05-06 14:52 | 23.91295 | 50.57829 | 33783 ft | 430 kts | 239° |
| 2026-05-06 14:53 | 23.89704 | 50.55074 | 34037 ft | 429 kts | 239° |
| 2026-05-06 14:53 | 23.88088 | 50.52278 | 34300 ft | 428 kts | 239° |
| 2026-05-06 14:53 | 23.86503 | 50.49539 | 34560 ft | 428 kts | 239° |
| 2026-05-06 14:53 | 23.84920 | 50.46805 | 34821 ft | 427 kts | 239° |
| 2026-05-06 14:54 | 23.83340 | 50.44077 | 35080 ft | 426 kts | 239° |
| 2026-05-06 14:54 | 23.81761 | 50.41352 | 35339 ft | 426 kts | 239° |
| 2026-05-06 14:54 | 23.80182 | 50.38628 | 35599 ft | 425 kts | 239° |
| 2026-05-06 14:54 | 23.78605 | 50.35911 | 35858 ft | 423 kts | 239° |
| 2026-05-06 14:55 | 23.77014 | 50.33166 | 36134 ft | 422 kts | 238° |
| 2026-05-06 14:55 | 23.75452 | 50.30475 | 36409 ft | 421 kts | 238° |
| 2026-05-06 14:55 | 23.73897 | 50.27797 | 36680 ft | 419 kts | 238° |
| 2026-05-06 14:55 | 23.72348 | 50.25132 | 36950 ft | 417 kts | 238° |
| 2026-05-06 14:56 | 23.70804 | 50.22473 | 37223 ft | 414 kts | 238° |
| 2026-05-06 14:56 | 23.69248 | 50.19798 | 37495 ft | 412 kts | 239° |
| 2026-05-06 14:56 | 23.67725 | 50.17179 | 37750 ft | 410 kts | 239° |
| 2026-05-06 14:57 | 23.64657 | 50.11904 | 37793 ft | 415 kts | 238° |
| 2026-05-06 14:57 | 23.61526 | 50.06530 | 37801 ft | 422 kts | 238° |
| 2026-05-06 14:58 | 23.58371 | 50.01129 | 37802 ft | 425 kts | 238° |
| 2026-05-06 14:58 | 23.55196 | 49.95699 | 37798 ft | 424 kts | 238° |
| 2026-05-06 14:59 | 23.52043 | 49.90310 | 37801 ft | 422 kts | 238° |
| 2026-05-06 14:59 | 23.48877 | 49.84908 | 37797 ft | 422 kts | 239° |
| 2026-05-06 15:00 | 23.45712 | 49.79505 | 37791 ft | 421 kts | 239° |
| 2026-05-06 15:00 | 23.42731 | 49.74430 | 37784 ft | 421 kts | 239° |
| 2026-05-06 15:01 | 23.39556 | 49.69016 | 37778 ft | 422 kts | 238° |
| 2026-05-06 15:01 | 23.36407 | 49.63653 | 37776 ft | 421 kts | 238° |
| 2026-05-06 15:02 | 23.33250 | 49.58297 | 37776 ft | 422 kts | 238° |
| 2026-05-06 15:02 | 23.30091 | 49.52940 | 37776 ft | 422 kts | 238° |
| 2026-05-06 15:03 | 23.26916 | 49.47557 | 37784 ft | 421 kts | 238° |
| 2026-05-06 15:03 | 23.23765 | 49.42220 | 37783 ft | 421 kts | 238° |
| 2026-05-06 15:04 | 23.20585 | 49.36840 | 37782 ft | 420 kts | 238° |
| 2026-05-06 15:04 | 23.17427 | 49.31509 | 37786 ft | 420 kts | 238° |
| 2026-05-06 15:05 | 23.14266 | 49.26170 | 37780 ft | 421 kts | 238° |
| 2026-05-06 15:05 | 23.11094 | 49.20824 | 37781 ft | 421 kts | 238° |
| 2026-05-06 15:06 | 23.07919 | 49.15473 | 37785 ft | 421 kts | 238° |
| 2026-05-06 15:06 | 23.04743 | 49.10129 | 37789 ft | 422 kts | 238° |
| 2026-05-06 15:07 | 23.01623 | 49.04754 | 37787 ft | 421 kts | 244° |
| 2026-05-06 15:07 | 22.99906 | 48.98697 | 37806 ft | 421 kts | 263° |
| 2026-05-06 15:08 | 22.99862 | 48.92382 | 37803 ft | 423 kts | 271° |
| 2026-05-06 15:08 | 23.00253 | 48.85976 | 37806 ft | 424 kts | 272° |
| 2026-05-06 15:09 | 23.00723 | 48.79604 | 37801 ft | 425 kts | 272° |
| 2026-05-06 15:09 | 23.01217 | 48.73206 | 37797 ft | 426 kts | 273° |
| 2026-05-06 15:10 | 23.01723 | 48.66796 | 37800 ft | 428 kts | 273° |
| 2026-05-06 15:10 | 23.02236 | 48.60368 | 37803 ft | 428 kts | 272° |
| 2026-05-06 15:11 | 23.02742 | 48.53927 | 37805 ft | 427 kts | 272° |
| 2026-05-06 15:11 | 23.03246 | 48.47520 | 37807 ft | 427 kts | 272° |
| 2026-05-06 15:12 | 23.03748 | 48.41120 | 37815 ft | 427 kts | 272° |
| 2026-05-06 15:12 | 23.04167 | 48.35744 | 37821 ft | 427 kts | 272° |
| 2026-05-06 15:13 | 23.04746 | 48.28248 | 37831 ft | 427 kts | 272° |
| 2026-05-06 15:13 | 23.05234 | 48.21860 | 37834 ft | 426 kts | 272° |
| 2026-05-06 15:14 | 23.05726 | 48.15468 | 37838 ft | 426 kts | 272° |
| 2026-05-06 15:14 | 23.06216 | 48.09025 | 37842 ft | 428 kts | 272° |
| 2026-05-06 15:15 | 23.06703 | 48.02616 | 37847 ft | 428 kts | 272° |
| 2026-05-06 15:15 | 23.07187 | 47.96187 | 37850 ft | 429 kts | 272° |
| 2026-05-06 15:16 | 23.07671 | 47.89743 | 37857 ft | 428 kts | 271° |
| 2026-05-06 15:16 | 23.08166 | 47.83288 | 37863 ft | 429 kts | 273° |
| 2026-05-06 15:17 | 23.09269 | 47.76917 | 37874 ft | 432 kts | 281° |
| 2026-05-06 15:17 | 23.10983 | 47.70657 | 37878 ft | 433 kts | 284° |
| 2026-05-06 15:18 | 23.12886 | 47.64467 | 37882 ft | 431 kts | 285° |
| 2026-05-06 15:18 | 23.14847 | 47.58313 | 37887 ft | 431 kts | 285° |
| 2026-05-06 15:19 | 23.16819 | 47.52182 | 37900 ft | 430 kts | 285° |
| 2026-05-06 15:19 | 23.18796 | 47.46052 | 37908 ft | 431 kts | 285° |
| 2026-05-06 15:20 | 23.20773 | 47.39928 | 37916 ft | 430 kts | 285° |
| 2026-05-06 15:20 | 23.22750 | 47.33782 | 37919 ft | 430 kts | 285° |
| 2026-05-06 15:21 | 23.24723 | 47.27654 | 37924 ft | 431 kts | 285° |
| 2026-05-06 15:21 | 23.26700 | 47.21495 | 37928 ft | 429 kts | 285° |
| 2026-05-06 15:22 | 23.28666 | 47.15371 | 37932 ft | 428 kts | 285° |
| 2026-05-06 15:22 | 23.30621 | 47.09253 | 37932 ft | 429 kts | 285° |
| 2026-05-06 15:23 | 23.32575 | 47.03154 | 37930 ft | 428 kts | 285° |
| 2026-05-06 15:23 | 23.34530 | 46.97033 | 37929 ft | 427 kts | 284° |
| 2026-05-06 15:24 | 23.36469 | 46.90947 | 37931 ft | 427 kts | 285° |
| 2026-05-06 15:24 | 23.38402 | 46.84866 | 37939 ft | 427 kts | 285° |
| 2026-05-06 15:25 | 23.40346 | 46.78743 | 37947 ft | 427 kts | 285° |
| 2026-05-06 15:25 | 23.42280 | 46.72654 | 37957 ft | 427 kts | 285° |
| 2026-05-06 15:26 | 23.44212 | 46.66552 | 37974 ft | 426 kts | 285° |
| 2026-05-06 15:26 | 23.46150 | 46.60440 | 37995 ft | 425 kts | 284° |
| 2026-05-06 15:27 | 23.48066 | 46.54380 | 38017 ft | 424 kts | 284° |
| 2026-05-06 15:27 | 23.49987 | 46.48293 | 38041 ft | 422 kts | 284° |
| 2026-05-06 15:28 | 23.51888 | 46.42243 | 38036 ft | 422 kts | 284° |
| 2026-05-06 15:28 | 23.53793 | 46.36185 | 38027 ft | 422 kts | 284° |
| 2026-05-06 15:29 | 23.55694 | 46.30140 | 38024 ft | 422 kts | 284° |
| 2026-05-06 15:29 | 23.57593 | 46.24066 | 38014 ft | 422 kts | 284° |
| 2026-05-06 15:30 | 23.59482 | 46.18040 | 38002 ft | 423 kts | 284° |
| 2026-05-06 15:30 | 23.61383 | 46.11965 | 37990 ft | 424 kts | 284° |
| 2026-05-06 15:31 | 23.63267 | 46.05927 | 37978 ft | 422 kts | 284° |
| 2026-05-06 15:31 | 23.65158 | 45.99866 | 37964 ft | 423 kts | 284° |
| 2026-05-06 15:32 | 23.67982 | 45.90765 | 37963 ft | 423 kts | 284° |
| 2026-05-06 15:32 | 23.69875 | 45.84679 | 37962 ft | 422 kts | 284° |
| 2026-05-06 15:33 | 23.71759 | 45.78596 | 37973 ft | 421 kts | 283° |
| 2026-05-06 15:33 | 23.73624 | 45.72563 | 37966 ft | 422 kts | 284° |
| 2026-05-06 15:34 | 23.75491 | 45.66535 | 37983 ft | 419 kts | 284° |
| 2026-05-06 15:34 | 23.77352 | 45.60498 | 37992 ft | 420 kts | 283° |
| 2026-05-06 15:35 | 23.79206 | 45.54486 | 38000 ft | 419 kts | 283° |
| 2026-05-06 15:35 | 23.81075 | 45.48412 | 38008 ft | 419 kts | 283° |
| 2026-05-06 15:36 | 23.82931 | 45.42369 | 38016 ft | 418 kts | 283° |
| 2026-05-06 15:36 | 23.84824 | 45.36188 | 38021 ft | 419 kts | 283° |
| 2026-05-06 15:37 | 23.86682 | 45.30130 | 38044 ft | 418 kts | 283° |
| 2026-05-06 15:37 | 23.88531 | 45.24092 | 38050 ft | 418 kts | 283° |
| 2026-05-06 15:38 | 23.90361 | 45.18086 | 38058 ft | 418 kts | 283° |
| 2026-05-06 15:38 | 23.92184 | 45.12096 | 38070 ft | 417 kts | 283° |
| 2026-05-06 15:39 | 23.94011 | 45.06081 | 38082 ft | 415 kts | 283° |
| 2026-05-06 15:39 | 23.95827 | 45.00096 | 38087 ft | 416 kts | 283° |
| 2026-05-06 15:40 | 23.97647 | 44.94112 | 38089 ft | 414 kts | 283° |
| 2026-05-06 15:40 | 23.99455 | 44.88145 | 38092 ft | 416 kts | 283° |
| 2026-05-06 15:41 | 24.01264 | 44.82158 | 38096 ft | 414 kts | 282° |
| 2026-05-06 15:41 | 24.03084 | 44.76142 | 38098 ft | 416 kts | 282° |
| 2026-05-06 15:42 | 24.04887 | 44.70174 | 38097 ft | 415 kts | 282° |
| 2026-05-06 15:42 | 24.06687 | 44.64184 | 38095 ft | 415 kts | 282° |
| 2026-05-06 15:43 | 24.08487 | 44.58193 | 38097 ft | 414 kts | 282° |
| 2026-05-06 15:43 | 24.10278 | 44.52206 | 38099 ft | 414 kts | 282° |
| 2026-05-06 15:44 | 24.12066 | 44.46241 | 38087 ft | 413 kts | 282° |
| 2026-05-06 15:44 | 24.13853 | 44.40259 | 38081 ft | 414 kts | 282° |
| 2026-05-06 15:45 | 24.15643 | 44.34285 | 38075 ft | 413 kts | 282° |
| 2026-05-06 15:45 | 24.17419 | 44.28316 | 38077 ft | 412 kts | 282° |
| 2026-05-06 15:46 | 24.19189 | 44.22350 | 38065 ft | 412 kts | 282° |
| 2026-05-06 15:46 | 24.20961 | 44.16404 | 38054 ft | 413 kts | 281° |
| 2026-05-06 15:47 | 24.22729 | 44.10452 | 38049 ft | 411 kts | 281° |
| 2026-05-06 15:47 | 24.24499 | 44.04470 | 38041 ft | 411 kts | 281° |
| 2026-05-06 15:48 | 24.26269 | 43.98486 | 38035 ft | 412 kts | 281° |
| 2026-05-06 15:48 | 24.28026 | 43.92539 | 38036 ft | 411 kts | 281° |
| 2026-05-06 15:49 | 24.29789 | 43.86554 | 38044 ft | 410 kts | 281° |
| 2026-05-06 15:49 | 24.31536 | 43.80622 | 38046 ft | 410 kts | 281° |
| 2026-05-06 15:50 | 24.33282 | 43.74685 | 38050 ft | 409 kts | 281° |
| 2026-05-06 15:50 | 24.35018 | 43.68770 | 38056 ft | 409 kts | 281° |
| 2026-05-06 15:51 | 24.36764 | 43.62812 | 38059 ft | 410 kts | 281° |
| 2026-05-06 15:51 | 24.38491 | 43.56888 | 38061 ft | 409 kts | 281° |
| 2026-05-06 15:52 | 24.40224 | 43.50970 | 38062 ft | 409 kts | 281° |
| 2026-05-06 15:52 | 24.41960 | 43.45008 | 38065 ft | 407 kts | 281° |
| 2026-05-06 15:53 | 24.43678 | 43.39106 | 38070 ft | 406 kts | 281° |
| 2026-05-06 15:53 | 24.45391 | 43.33210 | 38094 ft | 407 kts | 280° |
| 2026-05-06 15:54 | 24.47115 | 43.27275 | 38103 ft | 407 kts | 280° |
| 2026-05-06 15:54 | 24.48822 | 43.21386 | 38102 ft | 405 kts | 281° |
| 2026-05-06 15:55 | 24.50518 | 43.15523 | 38101 ft | 404 kts | 280° |
| 2026-05-06 15:55 | 24.52220 | 43.09624 | 38095 ft | 404 kts | 280° |
| 2026-05-06 15:56 | 24.53905 | 43.03795 | 38096 ft | 403 kts | 280° |
| 2026-05-06 15:56 | 24.55596 | 42.97912 | 38092 ft | 405 kts | 280° |
| 2026-05-06 15:57 | 24.57293 | 42.92026 | 38085 ft | 405 kts | 280° |
| 2026-05-06 15:57 | 24.58970 | 42.86153 | 38088 ft | 402 kts | 280° |
| 2026-05-06 15:58 | 24.60652 | 42.80273 | 38076 ft | 402 kts | 280° |
| 2026-05-06 15:58 | 24.62331 | 42.74413 | 38074 ft | 401 kts | 280° |
| 2026-05-06 15:59 | 24.64006 | 42.68549 | 38066 ft | 403 kts | 280° |
| 2026-05-06 15:59 | 24.65677 | 42.62683 | 38061 ft | 403 kts | 279° |
| 2026-05-06 16:00 | 24.67343 | 42.56841 | 38052 ft | 400 kts | 279° |
| 2026-05-06 16:00 | 24.69004 | 42.50969 | 38052 ft | 401 kts | 280° |
| 2026-05-06 16:01 | 24.70655 | 42.45162 | 38048 ft | 400 kts | 280° |
| 2026-05-06 16:01 | 24.72313 | 42.39305 | 38039 ft | 401 kts | 279° |
| 2026-05-06 16:02 | 24.73965 | 42.33458 | 38049 ft | 399 kts | 279° |
| 2026-05-06 16:02 | 24.75612 | 42.27623 | 38050 ft | 401 kts | 279° |
| 2026-05-06 16:03 | 24.77257 | 42.21808 | 38047 ft | 397 kts | 279° |
| 2026-05-06 16:03 | 24.78893 | 42.15997 | 38045 ft | 398 kts | 279° |
| 2026-05-06 16:04 | 24.80524 | 42.10171 | 38044 ft | 398 kts | 279° |
| 2026-05-06 16:04 | 24.82128 | 42.04378 | 38040 ft | 394 kts | 276° |
| 2026-05-06 16:05 | 24.82803 | 41.98506 | 38045 ft | 384 kts | 265° |
| 2026-05-06 16:05 | 24.82521 | 41.92712 | 38042 ft | 379 kts | 260° |
| 2026-05-06 16:06 | 24.81942 | 41.86946 | 37974 ft | 373 kts | 259° |
| 2026-05-06 16:06 | 24.81624 | 41.84142 | 37381 ft | 366 kts | 258° |
| 2026-05-06 16:06 | 24.81302 | 41.81409 | 36824 ft | 354 kts | 258° |
| 2026-05-06 16:07 | 24.80981 | 41.78748 | 36276 ft | 350 kts | 258° |
| 2026-05-06 16:07 | 24.80672 | 41.76105 | 35852 ft | 348 kts | 257° |
| 2026-05-06 16:07 | 24.80347 | 41.73454 | 35470 ft | 351 kts | 258° |
| 2026-05-06 16:07 | 24.80015 | 41.70790 | 35069 ft | 354 kts | 257° |
| 2026-05-06 16:08 | 24.79693 | 41.68103 | 34670 ft | 356 kts | 258° |
| 2026-05-06 16:08 | 24.79358 | 41.65406 | 34277 ft | 359 kts | 258° |
| 2026-05-06 16:08 | 24.79021 | 41.62680 | 33890 ft | 361 kts | 258° |
| 2026-05-06 16:08 | 24.78680 | 41.59917 | 33492 ft | 364 kts | 258° |
| 2026-05-06 16:09 | 24.78337 | 41.57134 | 33102 ft | 366 kts | 258° |
| 2026-05-06 16:09 | 24.77988 | 41.54316 | 32731 ft | 369 kts | 258° |
| 2026-05-06 16:09 | 24.77632 | 41.51483 | 32376 ft | 372 kts | 258° |
| 2026-05-06 16:09 | 24.77275 | 41.48632 | 32019 ft | 374 kts | 258° |
| 2026-05-06 16:10 | 24.76919 | 41.45765 | 31661 ft | 377 kts | 258° |
| 2026-05-06 16:10 | 24.76555 | 41.42907 | 31300 ft | 379 kts | 259° |
| 2026-05-06 16:10 | 24.76197 | 41.40036 | 30938 ft | 382 kts | 259° |
| 2026-05-06 16:10 | 24.75833 | 41.37148 | 30584 ft | 385 kts | 259° |
| 2026-05-06 16:11 | 24.75459 | 41.34195 | 30227 ft | 387 kts | 259° |
| 2026-05-06 16:11 | 24.75090 | 41.31265 | 29897 ft | 390 kts | 259° |
| 2026-05-06 16:11 | 24.74718 | 41.28305 | 29558 ft | 392 kts | 259° |
| 2026-05-06 16:11 | 24.74347 | 41.25335 | 29219 ft | 395 kts | 259° |
| 2026-05-06 16:12 | 24.73964 | 41.22353 | 28877 ft | 397 kts | 259° |
| 2026-05-06 16:12 | 24.73586 | 41.19350 | 28527 ft | 400 kts | 259° |
| 2026-05-06 16:12 | 24.73203 | 41.16289 | 28183 ft | 402 kts | 259° |
| 2026-05-06 16:12 | 24.72821 | 41.13251 | 27838 ft | 404 kts | 259° |
| 2026-05-06 16:13 | 24.72438 | 41.10202 | 27491 ft | 406 kts | 259° |
| 2026-05-06 16:13 | 24.72052 | 41.07136 | 27143 ft | 408 kts | 259° |
| 2026-05-06 16:13 | 24.71659 | 41.04069 | 26770 ft | 398 kts | 259° |
| 2026-05-06 16:13 | 24.71288 | 41.01116 | 26229 ft | 378 kts | 259° |
| 2026-05-06 16:14 | 24.70935 | 40.98339 | 25713 ft | 360 kts | 259° |
| 2026-05-06 16:14 | 24.70597 | 40.95696 | 25189 ft | 344 kts | 259° |
| 2026-05-06 16:14 | 24.70272 | 40.93151 | 24664 ft | 330 kts | 259° |
| 2026-05-06 16:14 | 24.69962 | 40.90705 | 24140 ft | 318 kts | 259° |
| 2026-05-06 16:15 | 24.69659 | 40.88312 | 23582 ft | 307 kts | 259° |
| 2026-05-06 16:15 | 24.69367 | 40.86036 | 23036 ft | 298 kts | 259° |
| 2026-05-06 16:15 | 24.69081 | 40.83823 | 22491 ft | 290 kts | 259° |
| 2026-05-06 16:15 | 24.68807 | 40.81667 | 21969 ft | 286 kts | 259° |
| 2026-05-06 16:16 | 24.68528 | 40.79517 | 21456 ft | 286 kts | 258° |
| 2026-05-06 16:16 | 24.68247 | 40.77329 | 20939 ft | 287 kts | 258° |
| 2026-05-06 16:16 | 24.67970 | 40.75165 | 20441 ft | 287 kts | 258° |
| 2026-05-06 16:16 | 24.67691 | 40.72998 | 19940 ft | 287 kts | 258° |
| 2026-05-06 16:17 | 24.67408 | 40.70826 | 19441 ft | 288 kts | 258° |
| 2026-05-06 16:17 | 24.67122 | 40.68644 | 18889 ft | 295 kts | 258° |
| 2026-05-06 16:17 | 24.66829 | 40.66393 | 18382 ft | 299 kts | 258° |
| 2026-05-06 16:17 | 24.66539 | 40.64134 | 17880 ft | 304 kts | 258° |
| 2026-05-06 16:18 | 24.66234 | 40.61800 | 17372 ft | 308 kts | 258° |
| 2026-05-06 16:18 | 24.65929 | 40.59477 | 16887 ft | 311 kts | 258° |
| 2026-05-06 16:18 | 24.65621 | 40.57129 | 16414 ft | 313 kts | 258° |
| 2026-05-06 16:18 | 24.65307 | 40.54732 | 15924 ft | 316 kts | 258° |
| 2026-05-06 16:19 | 24.64992 | 40.52348 | 15450 ft | 318 kts | 258° |
| 2026-05-06 16:19 | 24.64677 | 40.49954 | 14979 ft | 320 kts | 258° |
| 2026-05-06 16:19 | 24.64360 | 40.47544 | 14505 ft | 321 kts | 259° |
| 2026-05-06 16:19 | 24.64041 | 40.45120 | 14034 ft | 323 kts | 259° |
| 2026-05-06 16:20 | 24.63716 | 40.42657 | 13562 ft | 325 kts | 259° |
| 2026-05-06 16:20 | 24.63396 | 40.40215 | 13099 ft | 326 kts | 259° |
| 2026-05-06 16:20 | 24.63077 | 40.37746 | 12630 ft | 327 kts | 259° |
| 2026-05-06 16:20 | 24.62753 | 40.35288 | 12162 ft | 327 kts | 259° |
| 2026-05-06 16:21 | 24.62419 | 40.32798 | 11693 ft | 328 kts | 259° |
| 2026-05-06 16:21 | 24.62087 | 40.30331 | 11236 ft | 328 kts | 259° |
| 2026-05-06 16:21 | 24.61760 | 40.27863 | 10783 ft | 329 kts | 260° |
| 2026-05-06 16:21 | 24.61431 | 40.25387 | 10333 ft | 329 kts | 260° |
| 2026-05-06 16:22 | 24.61104 | 40.22908 | 9879 ft | 330 kts | 260° |
| 2026-05-06 16:22 | 24.60776 | 40.20429 | 9574 ft | 320 kts | 261° |
| 2026-05-06 16:22 | 24.60465 | 40.18069 | 9310 ft | 299 kts | 260° |
| 2026-05-06 16:22 | 24.60179 | 40.15887 | 9046 ft | 281 kts | 260° |
| 2026-05-06 16:23 | 24.59907 | 40.13820 | 8774 ft | 267 kts | 260° |
| 2026-05-06 16:23 | 24.59642 | 40.11834 | 8512 ft | 258 kts | 260° |
| 2026-05-06 16:23 | 24.59381 | 40.09865 | 8260 ft | 253 kts | 260° |
| 2026-05-06 16:23 | 24.58958 | 40.08002 | 8051 ft | 243 kts | 244° |
| 2026-05-06 16:24 | 24.58055 | 40.06496 | 8034 ft | 227 kts | 226° |
| 2026-05-06 16:24 | 24.56886 | 40.05384 | 7884 ft | 221 kts | 215° |
| 2026-05-06 16:24 | 24.55560 | 40.04529 | 7648 ft | 222 kts | 208° |
| 2026-05-06 16:24 | 24.54125 | 40.03785 | 7445 ft | 242 kts | 205° |
| 2026-05-06 16:25 | 24.52486 | 40.03031 | 7293 ft | 259 kts | 204° |
| 2026-05-06 16:25 | 24.50808 | 40.02312 | 7069 ft | 260 kts | 203° |
| 2026-05-06 16:25 | 24.49117 | 40.01611 | 6832 ft | 257 kts | 202° |
| 2026-05-06 16:25 | 24.47423 | 40.00917 | 6594 ft | 255 kts | 202° |
| 2026-05-06 16:26 | 24.45752 | 40.00236 | 6361 ft | 254 kts | 202° |
| 2026-05-06 16:26 | 24.44091 | 39.99563 | 6129 ft | 254 kts | 202° |
| 2026-05-06 16:26 | 24.42425 | 39.98889 | 5898 ft | 254 kts | 202° |
| 2026-05-06 16:26 | 24.40776 | 39.98222 | 5669 ft | 252 kts | 202° |
| 2026-05-06 16:27 | 24.39118 | 39.97554 | 5442 ft | 252 kts | 202° |
| 2026-05-06 16:27 | 24.37468 | 39.96889 | 5212 ft | 252 kts | 202° |
| 2026-05-06 16:27 | 24.35804 | 39.96223 | 4983 ft | 252 kts | 202° |
| 2026-05-06 16:27 | 24.34162 | 39.95566 | 4753 ft | 250 kts | 202° |
| 2026-05-06 16:28 | 24.32526 | 39.94902 | 4525 ft | 250 kts | 202° |
| 2026-05-06 16:28 | 24.30899 | 39.94247 | 4310 ft | 246 kts | 201° |
| 2026-05-06 16:28 | 24.29304 | 39.93610 | 4135 ft | 240 kts | 202° |
| 2026-05-06 16:28 | 24.27732 | 39.92984 | 3969 ft | 239 kts | 202° |
| 2026-05-06 16:29 | 24.26176 | 39.92363 | 4085 ft | 235 kts | 202° |
| 2026-05-06 16:29 | 24.24628 | 39.91761 | 4782 ft | 234 kts | 204° |
| 2026-05-06 16:29 | 24.23237 | 39.90859 | 5541 ft | 238 kts | 225° |
| 2026-05-06 16:29 | 24.22322 | 39.89414 | 5718 ft | 234 kts | 249° |
| 2026-05-06 16:30 | 24.21802 | 39.87706 | 5803 ft | 234 kts | 253° |
| 2026-05-06 16:30 | 24.21642 | 39.87139 | 5805 ft | 234 kts | 253° |
| 2026-05-06 16:30 | 24.21145 | 39.84220 | 5582 ft | 244 kts | 274° |
| 2026-05-06 16:30 | 24.21711 | 39.82455 | 5470 ft | 242 kts | 302° |
| 2026-05-06 16:31 | 24.22802 | 39.81073 | 5406 ft | 241 kts | 315° |
| 2026-05-06 16:31 | 24.24168 | 39.79942 | 5346 ft | 244 kts | 326° |
| 2026-05-06 16:31 | 24.25672 | 39.78950 | 5456 ft | 247 kts | 327° |
| 2026-05-06 16:31 | 24.27179 | 39.78001 | 5424 ft | 248 kts | 328° |
| 2026-05-06 16:32 | 24.28762 | 39.77037 | 4913 ft | 266 kts | 332° |
| 2026-05-06 16:32 | 24.30549 | 39.76329 | 4843 ft | 259 kts | 342° |
| 2026-05-06 16:32 | 24.32341 | 39.75832 | 4884 ft | 253 kts | 346° |
| 2026-05-06 16:32 | 24.33572 | 39.75567 | 4933 ft | 253 kts | 347° |
| 2026-05-06 16:33 | 24.35187 | 39.75228 | 5111 ft | 251 kts | 347° |
| 2026-05-06 16:33 | 24.36983 | 39.74831 | 5128 ft | 247 kts | 345° |
| 2026-05-06 16:33 | 24.38739 | 39.74416 | 4993 ft | 241 kts | 346° |
| 2026-05-06 16:34 | 24.42221 | 39.73705 | 4429 ft | 237 kts | 347° |
| 2026-05-06 16:34 | 24.43918 | 39.73325 | 4041 ft | 231 kts | 345° |
| 2026-05-06 16:34 | 24.45515 | 39.72943 | 3799 ft | 214 kts | 346° |
| 2026-05-06 16:34 | 24.46993 | 39.72631 | 3395 ft | 204 kts | 346° |
| 2026-05-06 16:35 | 24.48400 | 39.72314 | 3132 ft | 185 kts | 346° |
| 2026-05-06 16:35 | 24.49738 | 39.72026 | 2838 ft | 174 kts | 346° |
| 2026-05-06 16:35 | 24.51001 | 39.71764 | 2591 ft | 168 kts | 346° |
| 2026-05-06 16:35 | 24.52229 | 39.71485 | 2380 ft | 168 kts | 346° |
| 2026-05-06 16:36 | 24.53502 | 39.71216 | 2165 ft | 168 kts | 345° |
| 2026-05-06 16:36 | 24.54670 | 39.70954 | 2093 ft | 144 kts | 351° |
| 2026-05-06 16:36 | 24.55460 | 39.70795 | 2129 ft | 70 kts | 349° |
| 2026-05-06 16:36 | 24.55928 | 39.70693 | 2142 ft | 59 kts | 348° |
| 2026-05-06 16:37 | 24.56271 | 39.70763 | 2147 ft | 29 kts | 51° |
| 2026-05-06 16:37 | 24.56379 | 39.70785 | 2149 ft | 16 kts | 0° |
| 2026-05-06 16:37 | 24.56438 | 39.70849 | 2150 ft | 13 kts | 80° |
| 2026-05-06 16:37 | 24.56446 | 39.70945 | 2153 ft | 7 kts | 111° |
| 2026-05-06 16:38 | 24.56399 | 39.70984 | 2153 ft | 11 kts | 160° |
| 2026-05-06 16:38 | 24.56286 | 39.71007 | 2153 ft | 20 kts | 170° |
| 2026-05-06 16:38 | 24.56132 | 39.71038 | 2153 ft | 21 kts | 168° |
| 2026-05-06 16:38 | 24.55978 | 39.71071 | 2154 ft | 22 kts | 168° |
| 2026-05-06 16:39 | 24.55819 | 39.71108 | 2154 ft | 23 kts | 169° |
| 2026-05-06 16:39 | 24.55668 | 39.71147 | 2150 ft | 14 kts | 133° |
| 2026-05-06 16:39 | 24.55675 | 39.71231 | 2152 ft | 4 kts | 78° |
| 2026-05-06 16:39 | 24.55677 | 39.71241 | 2152 ft | 0 kts | 79° |